This is the latest recevied weather packets stored in our database for station/object N5ATR. If no packets are shown the sender has not sent any weather packets the latest 10 day(s).
| Time | Temp. | Humidity | Pressure | Rain* | Wind** | Luminosity | Snow |
|---|---|---|---|---|---|---|---|
| 1788058947 | 23.33° C | 43% | 1022.9 hPa | 0 mm | - | 0 W/m² | - |
| 1788058646 | 23.89° C | 41% | 1023.1 hPa | 0 mm | - | 0 W/m² | - |
| 1788058345 | 23.33° C | 42% | 1022.9 hPa | 0 mm | - | 0 W/m² | - |
| 1788058040 | 23.33° C | 45% | 1022.8 hPa | 0 mm | - | 0 W/m² | - |
| 1788057735 | 22.78° C | 46% | 1023 hPa | 0 mm | - | 0 W/m² | - |
| 1788057432 | 22.78° C | 46% | 1022.8 hPa | 0 mm | - | 0 W/m² | - |
| 1788057132 | 22.78° C | 46% | 1022.9 hPa | 0 mm | - | 0 W/m² | - |
| 1788056831 | 22.78° C | 47% | 1022.4 hPa | 0 mm | - | 0 W/m² | - |
| 1788056527 | 22.78° C | 47% | 1022.9 hPa | 0 mm | - | 0 W/m² | - |
| 1788056221 | 22.78° C | 47% | 1022.5 hPa | 0 mm | - | 0 W/m² | - |
| 1788055916 | 22.78° C | 47% | 1022.5 hPa | 0 mm | - | 0 W/m² | - |
| 1788055615 | 22.78° C | 47% | 1022.4 hPa | 0 mm | - | 0 W/m² | - |
| 1788055311 | 23.33° C | 47% | 1022.4 hPa | 0 mm | - | 0 W/m² | - |
| 1788055010 | 22.78° C | 47% | 1022.6 hPa | 0 mm | - | 0 W/m² | - |
| 1788054706 | 23.33° C | 47% | 1022.9 hPa | 0 mm | - | 0 W/m² | - |
| 1788054401 | 23.89° C | 46% | 1022.8 hPa | 0 mm | - | 0 W/m² | - |
| 1788054097 | 23.89° C | 44% | 1022.6 hPa | 0 mm | - | 0 W/m² | - |
| 1788053792 | 24.44° C | 43% | 1022.5 hPa | 0 mm | - | 1 W/m² | - |
| 1788053488 | 24.44° C | 42% | 1023 hPa | 0 mm | - | 1 W/m² | - |
| 1788053188 | 25° C | 41% | 1022.8 hPa | 0 mm | - | 2 W/m² | - |
| 1788052885 | 25° C | 40% | 1022.4 hPa | 0 mm | - | 4 W/m² | - |
| 1788052584 | 25.56° C | 39% | 1022.5 hPa | 0 mm | - | 6 W/m² | - |
| 1788052280 | 27.22° C | 33% | 1022.3 hPa | 0 mm | - | 11 W/m² | - |
| 1788051975 | 27.78° C | 32% | 1021.8 hPa | 0 mm | - | 14 W/m² | - |
| 1788051670 | 27.78° C | 32% | 1022.3 hPa | 0 mm | - | 18 W/m² | - |
* Rain latest hour (hover to see other rain measurements)
** Current wind speed in m/s (hover to see current wind gust speed)